sensor_id;sensor_type;location;lat;lon;timestamp;pressure;altitude;pressure_sealevel;temperature;humidity
52975;BME280;38839;45.186;5.720;2023-02-21T00:02:12;99817.94;;;9.30;65.79
52975;BME280;38839;45.186;5.720;2023-02-21T00:04:56;99820.47;;;9.25;65.67
52975;BME280;38839;45.186;5.720;2023-02-21T00:07:40;99825.59;;;9.19;65.75
52975;BME280;38839;45.186;5.720;2023-02-21T00:10:24;99818.56;;;9.12;66.04
52975;BME280;38839;45.186;5.720;2023-02-21T00:13:08;99816.91;;;9.17;65.85
52975;BME280;38839;45.186;5.720;2023-02-21T00:15:52;99813.50;;;9.24;65.67
52975;BME280;38839;45.186;5.720;2023-02-21T00:18:37;99814.44;;;9.28;65.53
52975;BME280;38839;45.186;5.720;2023-02-21T00:21:22;99804.88;;;9.25;65.30
52975;BME280;38839;45.186;5.720;2023-02-21T00:24:06;99807.50;;;9.29;65.72
52975;BME280;38839;45.186;5.720;2023-02-21T00:26:50;99804.88;;;9.25;65.67
52975;BME280;38839;45.186;5.720;2023-02-21T00:29:34;99805.78;;;9.29;65.58
52975;BME280;38839;45.186;5.720;2023-02-21T00:32:18;99804.88;;;9.25;65.77
52975;BME280;38839;45.186;5.720;2023-02-21T00:35:02;99803.97;;;9.23;65.62
52975;BME280;38839;45.186;5.720;2023-02-21T00:37:50;99804.88;;;9.29;65.65
52975;BME280;38839;45.186;5.720;2023-02-21T00:40:34;99799.59;;;9.22;65.75
52975;BME280;38839;45.186;5.720;2023-02-21T00:43:18;99799.56;;;9.19;65.39
52975;BME280;38839;45.186;5.720;2023-02-21T00:46:02;99800.44;;;9.20;65.62
52975;BME280;38839;45.186;5.720;2023-02-21T00:48:46;99796.91;;;9.16;65.41
52975;BME280;38839;45.186;5.720;2023-02-21T00:51:30;99791.72;;;9.15;65.49
52975;BME280;38839;45.186;5.720;2023-02-21T00:54:14;99790.78;;;9.11;65.34
52975;BME280;38839;45.186;5.720;2023-02-21T00:56:58;99780.31;;;9.08;65.42
52975;BME280;38839;45.186;5.720;2023-02-21T00:59:42;99783.81;;;9.10;65.27
52975;BME280;38839;45.186;5.720;2023-02-21T01:02:27;99787.25;;;9.06;65.47
52975;BME280;38839;45.186;5.720;2023-02-21T01:05:11;99786.41;;;9.07;65.51
52975;BME280;38839;45.186;5.720;2023-02-21T01:07:55;99783.81;;;9.10;65.30
52975;BME280;38839;45.186;5.720;2023-02-21T01:10:39;99781.22;;;9.10;65.21
52975;BME280;38839;45.186;5.720;2023-02-21T01:13:23;99785.63;;;9.14;65.18
52975;BME280;38839;45.186;5.720;2023-02-21T01:16:07;99781.28;;;9.13;65.08
52975;BME280;38839;45.186;5.720;2023-02-21T01:18:51;99782.94;;;9.06;65.05
52975;BME280;38839;45.186;5.720;2023-02-21T01:21:35;99784.63;;;9.04;64.74
52975;BME280;38839;45.186;5.720;2023-02-21T01:24:19;99780.22;;;8.99;65.22
52975;BME280;38839;45.186;5.720;2023-02-21T01:27:03;99773.22;;;8.95;65.13
52975;BME280;38839;45.186;5.720;2023-02-21T01:29:47;99783.63;;;8.95;64.96
52975;BME280;38839;45.186;5.720;2023-02-21T01:32:31;99784.50;;;8.95;64.92
52975;BME280;38839;45.186;5.720;2023-02-21T01:35:15;99778.34;;;8.89;65.23
52975;BME280;38839;45.186;5.720;2023-02-21T01:37:59;99773.06;;;8.82;65.07
52975;BME280;38839;45.186;5.720;2023-02-21T01:40:43;99779.19;;;8.86;65.12
52975;BME280;38839;45.186;5.720;2023-02-21T01:43:27;99785.25;;;8.86;65.08
52975;BME280;38839;45.186;5.720;2023-02-21T01:46:19;99780.84;;;8.81;65.44
52975;BME280;38839;45.186;5.720;2023-02-21T01:49:08;99782.59;;;8.83;65.31
52975;BME280;38839;45.186;5.720;2023-02-21T01:51:53;99780.06;;;8.86;65.19
52975;BME280;38839;45.186;5.720;2023-02-21T01:54:43;99786.97;;;8.84;65.06
52975;BME280;38839;45.186;5.720;2023-02-21T01:57:29;99784.31;;;8.80;65.13
52975;BME280;38839;45.186;5.720;2023-02-21T02:00:14;99777.31;;;8.77;65.20
52975;BME280;38839;45.186;5.720;2023-02-21T02:03:05;99778.22;;;8.79;65.37
52975;BME280;38839;45.186;5.720;2023-02-21T02:05:55;99786.69;;;8.66;65.50
52975;BME280;38839;45.186;5.720;2023-02-21T02:08:39;99781.50;;;8.66;65.81
52975;BME280;38839;45.186;5.720;2023-02-21T02:11:46;99776.22;;;8.63;65.60
52975;BME280;38839;45.186;5.720;2023-02-21T02:29:43;99769.50;;;8.77;65.44
52975;BME280;38839;45.186;5.720;2023-02-21T02:40:22;99765.88;;;8.64;65.94
52975;BME280;38839;45.186;5.720;2023-02-21T02:45:36;99759.75;;;8.62;65.96
52975;BME280;38839;45.186;5.720;2023-02-21T02:48:27;99760.53;;;8.57;66.43
52975;BME280;38839;45.186;5.720;2023-02-21T02:50:55;99762.22;;;8.52;66.22
52975;BME280;38839;45.186;5.720;2023-02-21T02:53:25;99762.16;;;8.47;65.80
52975;BME280;38839;45.186;5.720;2023-02-21T02:56:00;99761.03;;;8.34;66.16
52975;BME280;38839;45.186;5.720;2023-02-21T02:58:28;99763.63;;;8.34;66.23
52975;BME280;38839;45.186;5.720;2023-02-21T03:01:16;99761.94;;;8.36;66.25
52975;BME280;38839;45.186;5.720;2023-02-21T03:04:43;99760.06;;;8.27;66.29
52975;BME280;38839;45.186;5.720;2023-02-21T03:15:05;99758.22;;;8.19;66.66
52975;BME280;38839;45.186;5.720;2023-02-21T03:17:39;99765.25;;;8.24;66.67
52975;BME280;38839;45.186;5.720;2023-02-21T03:20:08;99757.28;;;8.15;66.81
52975;BME280;38839;45.186;5.720;2023-02-21T03:22:35;99753.00;;;8.19;66.79
52975;BME280;38839;45.186;5.720;2023-02-21T03:25:01;99760.75;;;8.16;66.89
52975;BME280;38839;45.186;5.720;2023-02-21T03:27:28;99757.34;;;8.18;66.93
52975;BME280;38839;45.186;5.720;2023-02-21T03:29:56;99761.56;;;8.13;67.01
52975;BME280;38839;45.186;5.720;2023-02-21T03:32:32;99765.00;;;8.11;66.98
52975;BME280;38839;45.186;5.720;2023-02-21T03:34:58;99758.78;;;8.01;67.00
52975;BME280;38839;45.186;5.720;2023-02-21T03:37:45;99758.69;;;7.96;67.12
52975;BME280;38839;45.186;5.720;2023-02-21T03:40:16;99763.03;;;7.97;67.16
52975;BME280;38839;45.186;5.720;2023-02-21T03:42:42;99761.22;;;7.93;67.24
52975;BME280;38839;45.186;5.720;2023-02-21T03:45:08;99757.63;;;7.85;67.88
52975;BME280;38839;45.186;5.720;2023-02-21T03:47:34;99756.78;;;7.86;67.43
52975;BME280;38839;45.186;5.720;2023-02-21T03:49:59;99760.31;;;7.90;67.34
52975;BME280;38839;45.186;5.720;2023-02-21T03:52:25;99767.13;;;7.83;67.77
52975;BME280;38839;45.186;5.720;2023-02-21T03:54:50;99764.44;;;7.78;68.14
52975;BME280;38839;45.186;5.720;2023-02-21T03:57:15;99763.97;;;7.52;70.25
52975;BME280;38839;45.186;5.720;2023-02-21T03:59:41;99767.47;;;7.54;70.65
52975;BME280;38839;45.186;5.720;2023-02-21T04:02:07;99758.09;;;7.61;70.18
52975;BME280;38839;45.186;5.720;2023-02-21T04:04:33;99761.63;;;7.66;70.21
52975;BME280;38839;45.186;5.720;2023-02-21T04:06:58;99761.63;;;7.66;70.65
52975;BME280;38839;45.186;5.720;2023-02-21T04:09:23;99760.75;;;7.65;70.52
52975;BME280;38839;45.186;5.720;2023-02-21T04:11:50;99768.63;;;7.70;70.69
52975;BME280;38839;45.186;5.720;2023-02-21T04:14:16;99765.94;;;7.65;70.95
52975;BME280;38839;45.186;5.720;2023-02-21T04:16:41;99762.50;;;7.65;71.15
52975;BME280;38839;45.186;5.720;2023-02-21T04:19:07;99758.09;;;7.61;71.48
52975;BME280;38839;45.186;5.720;2023-02-21T04:21:33;99766.66;;;7.57;72.04
52975;BME280;38839;45.186;5.720;2023-02-21T04:23:59;99764.16;;;7.61;72.27
52975;BME280;38839;45.186;5.720;2023-02-21T04:26:24;99762.38;;;7.60;71.99
52975;BME280;38839;45.186;5.720;2023-02-21T04:28:51;99764.06;;;7.58;72.24
52975;BME280;38839;45.186;5.720;2023-02-21T04:31:17;99763.16;;;7.56;71.86
52975;BME280;38839;45.186;5.720;2023-02-21T04:33:43;99764.06;;;7.58;71.93
52975;BME280;38839;45.186;5.720;2023-02-21T04:36:09;99763.25;;;7.59;71.75
52975;BME280;38839;45.186;5.720;2023-02-21T04:38:35;99763.19;;;7.58;72.11
52975;BME280;38839;45.186;5.720;2023-02-21T04:41:02;99763.06;;;7.50;72.40
52975;BME280;38839;45.186;5.720;2023-02-21T04:43:28;99754.34;;;7.47;72.82
52975;BME280;38839;45.186;5.720;2023-02-21T04:45:53;99759.50;;;7.45;72.53
52975;BME280;38839;45.186;5.720;2023-02-21T04:48:18;99752.38;;;7.35;72.54
52975;BME280;38839;45.186;5.720;2023-02-21T04:50:44;99746.22;;;7.30;72.64
52975;BME280;38839;45.186;5.720;2023-02-21T04:53:10;99758.25;;;7.24;73.29
52975;BME280;38839;45.186;5.720;2023-02-21T04:55:35;99751.38;;;7.27;73.37
52975;BME280;38839;45.186;5.720;2023-02-21T04:58:01;99745.28;;;7.24;73.36
52975;BME280;38839;45.186;5.720;2023-02-21T05:00:26;99739.22;;;7.25;73.44
52975;BME280;38839;45.186;5.720;2023-02-21T05:02:51;99743.56;;;7.27;73.31
52975;BME280;38839;45.186;5.720;2023-02-21T05:05:17;99746.09;;;7.23;73.41
52975;BME280;38839;45.186;5.720;2023-02-21T05:07:42;99740.91;;;7.23;73.41
52975;BME280;38839;45.186;5.720;2023-02-21T05:10:08;99741.84;;;7.27;73.25
52975;BME280;38839;45.186;5.720;2023-02-21T05:12:34;99735.59;;;7.17;73.55
52975;BME280;38839;45.186;5.720;2023-02-21T05:15:02;99733.00;;;7.17;73.42
52975;BME280;38839;45.186;5.720;2023-02-21T05:17:27;99732.09;;;7.15;73.35
52975;BME280;38839;45.186;5.720;2023-02-21T05:19:53;99733.00;;;7.16;73.33
52975;BME280;38839;45.186;5.720;2023-02-21T05:22:19;99729.38;;;7.09;73.40
52975;BME280;38839;45.186;5.720;2023-02-21T05:24:45;99726.78;;;7.09;73.80
52975;BME280;38839;45.186;5.720;2023-02-21T05:27:13;99720.81;;;7.12;73.55
52975;BME280;38839;45.186;5.720;2023-02-21T05:29:46;99721.66;;;7.12;73.72
52975;BME280;38839;45.186;5.720;2023-02-21T05:32:13;99719.91;;;7.11;73.72
52975;BME280;38839;45.186;5.720;2023-02-21T05:34:38;99720.69;;;7.05;73.74
52975;BME280;38839;45.186;5.720;2023-02-21T05:37:05;99718.03;;;7.04;73.72
52975;BME280;38839;45.186;5.720;2023-02-21T05:39:30;99721.47;;;7.03;74.17
52975;BME280;38839;45.186;5.720;2023-02-21T05:41:56;99720.44;;;6.93;74.33
52975;BME280;38839;45.186;5.720;2023-02-21T05:44:21;99716.84;;;6.88;74.27
52975;BME280;38839;45.186;5.720;2023-02-21T05:46:46;99721.28;;;6.94;73.84
52975;BME280;38839;45.186;5.720;2023-02-21T05:49:12;99704.88;;;6.95;73.71
52975;BME280;38839;45.186;5.720;2023-02-21T05:51:40;99708.38;;;6.97;73.56
52975;BME280;38839;45.186;5.720;2023-02-21T05:54:08;99710.97;;;6.97;73.77
52975;BME280;38839;45.186;5.720;2023-02-21T05:56:41;99697.97;;;6.94;74.36
52975;BME280;38839;45.186;5.720;2023-02-21T05:59:07;99705.78;;;6.97;74.08
52975;BME280;38839;45.186;5.720;2023-02-21T06:01:33;99705.78;;;6.97;74.19
52975;BME280;38839;45.186;5.720;2023-02-21T06:03:59;99699.69;;;6.93;74.07
52975;BME280;38839;45.186;5.720;2023-02-21T06:06:24;99701.28;;;6.88;74.41
52975;BME280;38839;45.186;5.720;2023-02-21T06:08:50;99697.03;;;6.92;74.30
52975;BME280;38839;45.186;5.720;2023-02-21T06:11:22;99700.53;;;6.94;74.49
52975;BME280;38839;45.186;5.720;2023-02-21T06:13:52;99700.47;;;6.91;74.13
52975;BME280;38839;45.186;5.720;2023-02-21T06:16:18;99694.34;;;6.85;74.54
52975;BME280;38839;45.186;5.720;2023-02-21T06:18:43;99698.63;;;6.83;75.11
52975;BME280;38839;45.186;5.720;2023-02-21T06:21:09;99705.66;;;6.91;74.89
52975;BME280;38839;45.186;5.720;2023-02-21T06:23:34;99705.84;;;7.00;74.83
52975;BME280;38839;45.186;5.720;2023-02-21T06:25:59;99702.41;;;7.01;74.58
52975;BME280;38839;45.186;5.720;2023-02-21T06:28:28;99698.16;;;7.04;74.70
52975;BME280;38839;45.186;5.720;2023-02-21T06:30:55;99698.78;;;6.93;75.01
52975;BME280;38839;45.186;5.720;2023-02-21T06:33:20;99703.97;;;6.91;74.89
52975;BME280;38839;45.186;5.720;2023-02-21T06:35:46;99701.50;;;6.97;74.68
52975;BME280;38839;45.186;5.720;2023-02-21T06:38:11;99704.88;;;6.93;74.82
52975;BME280;38839;45.186;5.720;2023-02-21T06:40:37;99703.84;;;6.87;74.96
52975;BME280;38839;45.186;5.720;2023-02-21T06:43:02;99711.56;;;6.83;74.95
52975;BME280;38839;45.186;5.720;2023-02-21T06:45:28;99714.75;;;6.70;75.23
52975;BME280;38839;45.186;5.720;2023-02-21T06:47:53;99719.09;;;6.71;75.02
52975;BME280;38839;45.186;5.720;2023-02-21T06:50:18;99715.56;;;6.28;76.78
52975;BME280;38839;45.186;5.720;2023-02-21T06:52:44;99714.97;;;6.41;76.43
52975;BME280;38839;45.186;5.720;2023-02-21T06:55:09;99715.06;;;6.44;76.06
52975;BME280;38839;45.186;5.720;2023-02-21T06:57:34;99716.78;;;6.44;76.01
52975;BME280;38839;45.186;5.720;2023-02-21T07:00:00;99710.59;;;6.39;75.78
52975;BME280;38839;45.186;5.720;2023-02-21T07:02:25;99710.56;;;6.36;76.20
52975;BME280;38839;45.186;5.720;2023-02-21T07:04:51;99719.97;;;6.32;76.18
52975;BME280;38839;45.186;5.720;2023-02-21T07:07:16;99712.09;;;6.28;76.23
52975;BME280;38839;45.186;5.720;2023-02-21T07:09:41;99715.19;;;6.13;76.62
52975;BME280;38839;45.186;5.720;2023-02-21T07:12:07;99716.00;;;6.10;76.81
52975;BME280;38839;45.186;5.720;2023-02-21T07:14:35;99716.84;;;6.09;77.05
52975;BME280;38839;45.186;5.720;2023-02-21T07:17:01;99726.19;;;6.04;77.22
52975;BME280;38839;45.186;5.720;2023-02-21T07:19:26;99719.25;;;6.01;77.30
52975;BME280;38839;45.186;5.720;2023-02-21T07:21:52;99708.16;;;6.07;76.90
52975;BME280;38839;45.186;5.720;2023-02-21T07:24:17;99712.69;;;6.16;76.95
52975;BME280;38839;45.186;5.720;2023-02-21T07:26:42;99717.75;;;6.13;76.90
52975;BME280;38839;45.186;5.720;2023-02-21T07:29:08;99715.31;;;6.19;76.42
52975;BME280;38839;45.186;5.720;2023-02-21T07:31:33;99717.22;;;6.26;76.51
52975;BME280;38839;45.186;5.720;2023-02-21T07:33:59;99711.41;;;6.36;76.43
52975;BME280;38839;45.186;5.720;2023-02-21T07:36:24;99721.34;;;6.54;75.68
52975;BME280;38839;45.186;5.720;2023-02-21T07:38:49;99714.59;;;6.64;75.53
52975;BME280;38839;45.186;5.720;2023-02-21T07:41:15;99717.41;;;6.73;75.04
52975;BME280;38839;45.186;5.720;2023-02-21T07:43:41;99715.72;;;6.75;75.01
52975;BME280;38839;45.186;5.720;2023-02-21T07:46:14;99714.16;;;6.83;74.74
52975;BME280;38839;45.186;5.720;2023-02-21T07:48:39;99717.59;;;6.82;74.79
52975;BME280;38839;45.186;5.720;2023-02-21T07:51:06;99723.00;;;6.92;74.41
52975;BME280;38839;45.186;5.720;2023-02-21T07:53:32;99721.28;;;6.94;74.31
52975;BME280;38839;45.186;5.720;2023-02-21T07:55:57;99717.03;;;6.96;74.08
52975;BME280;38839;45.186;5.720;2023-02-21T07:58:23;99718.03;;;7.04;73.81
52975;BME280;38839;45.186;5.720;2023-02-21T08:00:50;99709.41;;;7.05;73.76
52975;BME280;38839;45.186;5.720;2023-02-21T08:03:16;99718.88;;;7.01;73.93
52975;BME280;38839;45.186;5.720;2023-02-21T08:05:42;99714.59;;;7.05;73.92
52975;BME280;38839;45.186;5.720;2023-02-21T08:08:08;99710.44;;;7.12;73.77
52975;BME280;38839;45.186;5.720;2023-02-21T08:10:35;99708.03;;;7.22;73.25
52975;BME280;38839;45.186;5.720;2023-02-21T08:13:00;99712.72;;;7.42;72.80
52975;BME280;38839;45.186;5.720;2023-02-21T08:15:26;99711.13;;;7.50;72.58
52975;BME280;38839;45.186;5.720;2023-02-21T08:17:51;99710.00;;;7.36;72.86
52975;BME280;38839;45.186;5.720;2023-02-21T08:20:17;99698.25;;;7.56;72.62
52975;BME280;38839;45.186;5.720;2023-02-21T08:22:43;99705.34;;;7.66;71.99
52975;BME280;38839;45.186;5.720;2023-02-21T08:25:12;99701.19;;;7.76;71.74
52975;BME280;38839;45.186;5.720;2023-02-21T08:27:39;99712.88;;;7.51;72.29
52975;BME280;38839;45.186;5.720;2023-02-21T08:30:06;99711.75;;;7.37;72.93
52975;BME280;38839;45.186;5.720;2023-02-21T08:32:33;99705.00;;;7.45;72.86
52975;BME280;38839;45.186;5.720;2023-02-21T08:34:59;99699.84;;;7.48;72.83
52975;BME280;38839;45.186;5.720;2023-02-21T08:37:24;99694.28;;;7.77;72.04
52975;BME280;38839;45.186;5.720;2023-02-21T08:39:57;99693.94;;;8.09;71.12
52975;BME280;38839;45.186;5.720;2023-02-21T08:42:22;99687.41;;;8.35;70.30
52975;BME280;38839;45.186;5.720;2023-02-21T08:44:48;99687.88;;;8.66;69.04
52975;BME280;38839;45.186;5.720;2023-02-21T08:47:14;99683.81;;;8.90;68.49
52975;BME280;38839;45.186;5.720;2023-02-21T08:49:47;99690.25;;;9.19;67.22
52975;BME280;38839;45.186;5.720;2023-02-21T08:52:14;99686.09;;;9.38;66.81
52975;BME280;38839;45.186;5.720;2023-02-21T08:54:41;99684.66;;;9.68;65.88
52975;BME280;38839;45.186;5.720;2023-02-21T08:57:06;99671.75;;;9.85;65.39
52975;BME280;38839;45.186;5.720;2023-02-21T08:59:32;99678.06;;;10.16;64.36
52975;BME280;38839;45.186;5.720;2023-02-21T09:01:59;99669.53;;;10.34;63.76
52975;BME280;38839;45.186;5.720;2023-02-21T09:04:25;99664.44;;;10.53;63.21
52975;BME280;38839;45.186;5.720;2023-02-21T09:06:54;99660.94;;;10.54;62.49
52975;BME280;38839;45.186;5.720;2023-02-21T09:09:20;99658.34;;;10.60;62.42
52975;BME280;38839;45.186;5.720;2023-02-21T09:11:46;99650.59;;;10.71;62.46
52975;BME280;38839;45.186;5.720;2023-02-21T09:14:14;99649.81;;;11.01;61.82
52975;BME280;38839;45.186;5.720;2023-02-21T09:16:40;99648.09;;;11.03;61.46
52975;BME280;38839;45.186;5.720;2023-02-21T09:19:07;99639.41;;;11.04;61.45
52975;BME280;38839;45.186;5.720;2023-02-21T09:21:33;99637.72;;;11.29;60.83
52975;BME280;38839;45.186;5.720;2023-02-21T09:23:58;99631.59;;;11.19;60.65
52975;BME280;38839;45.186;5.720;2023-02-21T09:26:25;99631.53;;;10.93;61.05
52975;BME280;38839;45.186;5.720;2023-02-21T09:28:51;99620.03;;;10.50;62.02
52975;BME280;38839;45.186;5.720;2023-02-21T09:31:17;99625.09;;;10.25;62.99
52975;BME280;38839;45.186;5.720;2023-02-21T09:33:43;99616.50;;;10.37;62.91
52975;BME280;38839;45.186;5.720;2023-02-21T09:36:10;99616.59;;;10.60;62.42
52975;BME280;38839;45.186;5.720;2023-02-21T09:38:36;99608.84;;;10.71;61.86
52975;BME280;38839;45.186;5.720;2023-02-21T09:41:05;99606.28;;;10.87;61.45
52975;BME280;38839;45.186;5.720;2023-02-21T09:43:40;99609.75;;;10.86;61.57
52975;BME280;38839;45.186;5.720;2023-02-21T09:46:15;99607.97;;;10.73;61.38
52975;BME280;38839;45.186;5.720;2023-02-21T09:48:43;99604.41;;;10.53;62.25
52975;BME280;38839;45.186;5.720;2023-02-21T09:51:10;99603.56;;;10.52;62.38
52975;BME280;38839;45.186;5.720;2023-02-21T09:53:39;99593.22;;;10.81;61.81
52975;BME280;38839;45.186;5.720;2023-02-21T09:56:19;99587.22;;;11.22;60.90
52975;BME280;38839;45.186;5.720;2023-02-21T09:58:45;99586.34;;;11.42;60.00
52975;BME280;38839;45.186;5.720;2023-02-21T10:09:58;99568.00;;;12.03;58.21
52975;BME280;38839;45.186;5.720;2023-02-21T10:12:34;99573.25;;;11.88;58.09
52975;BME280;38839;45.186;5.720;2023-02-21T10:18:00;99558.41;;;12.16;57.51
52975;BME280;38839;45.186;5.720;2023-02-21T10:21:03;99546.16;;;12.27;56.70
52975;BME280;38839;45.186;5.720;2023-02-21T10:23:43;99548.72;;;12.38;56.57
52975;BME280;38839;45.186;5.720;2023-02-21T10:26:16;99544.44;;;12.17;56.92
52975;BME280;38839;45.186;5.720;2023-02-21T10:28:42;99545.28;;;12.27;56.93
52975;BME280;38839;45.186;5.720;2023-02-21T10:31:13;99541.75;;;12.34;56.69
52975;BME280;38839;45.186;5.720;2023-02-21T10:33:40;99538.34;;;12.24;56.67
52975;BME280;38839;45.186;5.720;2023-02-21T10:36:15;99536.59;;;12.19;56.35
52975;BME280;38839;45.186;5.720;2023-02-21T10:41:32;99527.88;;;12.14;56.23
52975;BME280;38839;45.186;5.720;2023-02-21T10:44:25;99523.47;;;12.28;55.76
52975;BME280;38839;45.186;5.720;2023-02-21T10:47:01;99529.53;;;12.36;55.37
52975;BME280;38839;45.186;5.720;2023-02-21T10:49:33;99526.06;;;12.37;55.55
52975;BME280;38839;45.186;5.720;2023-02-21T10:52:14;99522.59;;;12.35;55.48
52975;BME280;38839;45.186;5.720;2023-02-21T10:55:09;99512.09;;;12.38;55.26
52975;BME280;38839;45.186;5.720;2023-02-21T10:57:44;99506.00;;;12.41;55.38
52975;BME280;38839;45.186;5.720;2023-02-21T11:00:24;99495.50;;;12.42;54.92
52975;BME280;38839;45.186;5.720;2023-02-21T11:02:56;99493.75;;;12.44;55.22
52975;BME280;38839;45.186;5.720;2023-02-21T11:05:22;99494.59;;;12.50;55.03
52975;BME280;38839;45.186;5.720;2023-02-21T11:08:04;99480.66;;;12.47;55.02
52975;BME280;38839;45.186;5.720;2023-02-21T11:10:38;99484.13;;;12.50;55.15
52975;BME280;38839;45.186;5.720;2023-02-21T11:15:37;99463.94;;;12.67;54.63
52975;BME280;38839;45.186;5.720;2023-02-21T11:18:23;99466.53;;;12.76;53.85
52975;BME280;38839;45.186;5.720;2023-02-21T11:20:51;99456.00;;;12.79;54.12
52975;BME280;38839;45.186;5.720;2023-02-21T11:23:44;99445.47;;;12.87;53.27
52975;BME280;38839;45.186;5.720;2023-02-21T11:26:12;99445.44;;;12.95;53.40
52975;BME280;38839;45.186;5.720;2023-02-21T11:28:39;99436.63;;;13.06;52.92
52975;BME280;38839;45.186;5.720;2023-02-21T11:31:28;99433.88;;;13.17;52.71
52975;BME280;38839;45.186;5.720;2023-02-21T11:34:03;99420.69;;;13.28;52.51
52975;BME280;38839;45.186;5.720;2023-02-21T11:36:31;99411.94;;;13.31;52.66
52975;BME280;38839;45.186;5.720;2023-02-21T11:39:18;99406.63;;;13.37;52.70
52975;BME280;38839;45.186;5.720;2023-02-21T11:41:48;99405.78;;;13.35;52.72
52975;BME280;38839;45.186;5.720;2023-02-21T11:44:35;99406.63;;;13.40;52.83
52975;BME280;38839;45.186;5.720;2023-02-21T11:47:21;99397.91;;;13.38;52.95
52975;BME280;38839;45.186;5.720;2023-02-21T11:50:03;99398.78;;;13.37;52.37
52975;BME280;38839;45.186;5.720;2023-02-21T11:52:47;99390.97;;;13.31;52.52
52975;BME280;38839;45.186;5.720;2023-02-21T11:55:18;99390.09;;;13.33;52.58
52975;BME280;38839;45.186;5.720;2023-02-21T12:00:42;99381.41;;;13.30;52.15
52975;BME280;38839;45.186;5.720;2023-02-21T12:09:00;99352.50;;;13.37;51.68
52975;BME280;38839;45.186;5.720;2023-02-21T12:14:51;99340.19;;;13.44;52.22
52975;BME280;38839;45.186;5.720;2023-02-21T12:27:01;99324.38;;;13.52;54.28
52975;BME280;38839;45.186;5.720;2023-02-21T12:35:18;99313.84;;;13.55;54.82
52975;BME280;38839;45.186;5.720;2023-02-21T12:43:56;99291.69;;;13.79;54.22
52975;BME280;38839;45.186;5.720;2023-02-21T12:46:39;99288.13;;;13.84;53.87
52975;BME280;38839;45.186;5.720;2023-02-21T12:49:15;99295.91;;;13.89;54.23
52975;BME280;38839;45.186;5.720;2023-02-21T12:52:08;99282.63;;;14.00;54.23
52975;BME280;38839;45.186;5.720;2023-02-21T13:05:48;99261.97;;;14.34;54.54
52975;BME280;38839;45.186;5.720;2023-02-21T13:08:25;99253.09;;;14.41;54.25
52975;BME280;38839;45.186;5.720;2023-02-21T13:11:00;99246.88;;;14.48;54.39
52975;BME280;38839;45.186;5.720;2023-02-21T13:13:32;99244.16;;;14.53;54.63
52975;BME280;38839;45.186;5.720;2023-02-21T13:16:01;99240.63;;;14.56;55.27
52975;BME280;38839;45.186;5.720;2023-02-21T13:18:38;99233.63;;;14.55;55.44
52975;BME280;38839;45.186;5.720;2023-02-21T13:21:32;99227.44;;;14.60;55.77
52975;BME280;38839;45.186;5.720;2023-02-21T13:24:24;99226.50;;;14.63;55.62
52975;BME280;38839;45.186;5.720;2023-02-21T13:27:38;99219.34;;;14.71;55.36
52975;BME280;38839;45.186;5.720;2023-02-21T13:32:58;99202.75;;;14.71;55.63
52975;BME280;38839;45.186;5.720;2023-02-21T13:35:32;99200.03;;;14.75;55.42
52975;BME280;38839;45.186;5.720;2023-02-21T13:37:59;99191.31;;;14.72;55.57
52975;BME280;38839;45.186;5.720;2023-02-21T13:40:37;99192.34;;;14.64;55.86
52975;BME280;38839;45.186;5.720;2023-02-21T13:43:24;99186.22;;;14.64;55.84
52975;BME280;38839;45.186;5.720;2023-02-21T13:45:50;99180.97;;;14.64;55.50
52975;BME280;38839;45.186;5.720;2023-02-21T13:48:27;99179.00;;;14.75;55.38
52975;BME280;38839;45.186;5.720;2023-02-21T13:50:58;99170.06;;;14.85;55.46
52975;BME280;38839;45.186;5.720;2023-02-21T13:53:32;99168.19;;;14.91;55.29
52975;BME280;38839;45.186;5.720;2023-02-21T13:56:17;99167.44;;;14.85;55.25
52975;BME280;38839;45.186;5.720;2023-02-21T13:58:49;99157.91;;;14.80;55.50
52975;BME280;38839;45.186;5.720;2023-02-21T14:01:16;99154.41;;;14.79;55.58
52975;BME280;38839;45.186;5.720;2023-02-21T14:03:42;99153.34;;;14.88;55.41
52975;BME280;38839;45.186;5.720;2023-02-21T14:06:21;99145.44;;;14.89;55.56
52975;BME280;38839;45.186;5.720;2023-02-21T14:08:49;99139.38;;;14.87;55.76
52975;BME280;38839;45.186;5.720;2023-02-21T14:11:22;99135.06;;;14.83;56.19
52975;BME280;38839;45.186;5.720;2023-02-21T14:14:01;99119.19;;;14.89;55.93
52975;BME280;38839;45.186;5.720;2023-02-21T14:16:45;99128.88;;;14.87;56.14
52975;BME280;38839;45.186;5.720;2023-02-21T14:19:21;99135.69;;;14.95;55.99
52975;BME280;38839;45.186;5.720;2023-02-21T14:21:49;99124.44;;;14.89;56.14
52975;BME280;38839;45.186;5.720;2023-02-21T14:24:27;99127.94;;;14.88;56.53
52975;BME280;38839;45.186;5.720;2023-02-21T14:26:55;99121.94;;;14.83;56.38
52975;BME280;38839;45.186;5.720;2023-02-21T14:34:48;99112.31;;;14.82;56.57
52975;BME280;38839;45.186;5.720;2023-02-21T14:37:41;99110.50;;;14.86;56.89
52975;BME280;38839;45.186;5.720;2023-02-21T14:53:57;99106.22;;;14.82;57.45
52975;BME280;38839;45.186;5.720;2023-02-21T15:01:58;99107.00;;;14.85;57.55
52975;BME280;38839;45.186;5.720;2023-02-21T15:07:07;99113.94;;;14.89;57.56
52975;BME280;38839;45.186;5.720;2023-02-21T15:09:35;99098.28;;;14.85;57.60
52975;BME280;38839;45.186;5.720;2023-02-21T15:12:04;99102.56;;;14.89;57.46
52975;BME280;38839;45.186;5.720;2023-02-21T15:14:39;99106.88;;;14.92;57.52
52975;BME280;38839;45.186;5.720;2023-02-21T15:17:16;99101.69;;;14.88;57.55
52975;BME280;38839;45.186;5.720;2023-02-21T15:19:43;99099.06;;;14.88;57.87
52975;BME280;38839;45.186;5.720;2023-02-21T15:25:10;99094.72;;;14.87;57.78
52975;BME280;38839;45.186;5.720;2023-02-21T15:27:57;99088.56;;;14.88;57.86
52975;BME280;38839;45.186;5.720;2023-02-21T15:30:38;99095.53;;;14.89;57.89
52975;BME280;38839;45.186;5.720;2023-02-21T15:33:18;99086.88;;;14.86;58.00
52975;BME280;38839;45.186;5.720;2023-02-21T15:35:54;99088.53;;;14.90;57.85
52975;BME280;38839;45.186;5.720;2023-02-21T15:41:01;99085.06;;;14.88;57.71
52975;BME280;38839;45.186;5.720;2023-02-21T15:43:37;99078.00;;;14.90;57.57
52975;BME280;38839;45.186;5.720;2023-02-21T15:46:07;99077.22;;;14.86;57.96
52975;BME280;38839;45.186;5.720;2023-02-21T15:48:35;99081.63;;;14.84;57.85